Time;durP1;ratioP1;P1;durP2;ratioP2;P2;SDS_P1;SDS_P2;PMS_P1;PMS_P2;Temp;Humidity;BMP_temperature;BMP_pressure;BME280_temperature;BME280_humidity;BME280_pressure;Samples;Min_cycle;Max_cycle;Signal;HPM_P1;HPM_P2
2022/06/28 00:00:13;;;;;;;27.98;13.18;;;14.10;99.90;;;;;;5075011;28;20083;-79
2022/06/28 00:02:39;;;;;;;20.77;12.02;;;14.10;99.90;;;;;;5074762;28;20052;-79
2022/06/28 00:05:05;;;;;;;21.75;12.27;;;14.10;99.90;;;;;;5075711;28;20387;-79
2022/06/28 00:07:31;;;;;;;19.52;11.30;;;14.10;99.90;;;;;;5076074;28;20040;-79
2022/06/28 00:09:57;;;;;;;18.92;10.65;;;14.10;99.90;;;;;;5075538;28;20041;-79
2022/06/28 00:12:23;;;;;;;27.13;12.13;;;14.00;99.90;;;;;;5074478;28;20045;-79
2022/06/28 00:17:33;;;;;;;18.42;11.55;;;14.00;99.90;;;;;;5074321;28;20148;-79
2022/06/28 00:19:59;;;;;;;21.83;11.15;;;13.90;99.90;;;;;;5075660;28;20048;-79
2022/06/28 00:22:25;;;;;;;19.88;11.43;;;13.90;99.90;;;;;;5075572;28;20032;-79
2022/06/28 00:24:51;;;;;;;19.20;10.80;;;13.90;99.90;;;;;;5075350;28;20127;-79
2022/06/28 00:27:17;;;;;;;20.30;11.63;;;13.90;99.90;;;;;;5075507;28;20445;-79
2022/06/28 00:29:43;;;;;;;21.90;11.77;;;13.90;99.90;;;;;;5075381;28;20049;-79
2022/06/28 00:32:09;;;;;;;18.60;11.25;;;13.80;99.90;;;;;;5073995;28;20044;-79
2022/06/28 00:34:34;;;;;;;23.70;11.82;;;13.80;99.90;;;;;;5073939;28;20200;-79
2022/06/28 00:37:00;;;;;;;21.50;10.30;;;13.80;99.90;;;;;;5073976;28;20495;-79
2022/06/28 00:39:26;;;;;;;21.25;11.77;;;13.80;99.90;;;;;;5073947;28;20051;-79
2022/06/28 00:41:52;;;;;;;20.58;10.75;;;13.70;99.90;;;;;;5075027;28;20048;-79
2022/06/28 00:44:19;;;;;;;17.00;10.43;;;13.70;99.90;;;;;;5075167;28;20480;-79
2022/06/28 00:46:47;;;;;;;23.13;11.15;;;13.70;99.90;;;;;;5073646;28;20429;-79
2022/06/28 00:49:13;;;;;;;20.98;11.77;;;13.70;99.90;;;;;;5075067;28;20036;-79
2022/06/28 00:51:39;;;;;;;22.63;11.32;;;13.70;99.90;;;;;;5074900;28;20040;-79
2022/06/28 00:54:05;;;;;;;22.42;11.15;;;13.70;99.90;;;;;;5075038;28;20447;-79
2022/06/28 00:56:31;;;;;;;20.00;11.55;;;13.70;99.90;;;;;;5074870;28;20039;-79
2022/06/28 00:58:57;;;;;;;23.05;12.93;;;13.70;99.90;;;;;;5074815;28;20414;-80
2022/06/28 01:01:26;;;;;;;24.27;13.52;;;13.70;99.90;;;;;;5074603;28;20105;-80
2022/06/28 01:03:54;;;;;;;23.70;12.95;;;13.70;99.90;;;;;;5074808;28;20044;-79
2022/06/28 01:06:19;;;;;;;24.55;13.35;;;13.60;99.90;;;;;;5074613;28;20124;-80
2022/06/28 01:08:46;;;;;;;26.85;13.77;;;13.60;99.90;;;;;;5073199;28;20127;-79
2022/06/28 01:11:18;;;;;;;22.45;13.73;;;13.60;99.90;;;;;;5074487;28;20048;-79
2022/06/28 01:13:53;;;;;;;23.50;14.60;;;13.60;99.90;;;;;;5074629;28;20049;-79
2022/06/28 01:16:21;;;;;;;30.55;15.52;;;13.60;99.90;;;;;;5074534;28;20045;-79
2022/06/28 01:18:47;;;;;;;33.47;15.23;;;13.60;99.90;;;;;;5074422;28;20094;-79
2022/06/28 01:21:14;;;;;;;34.03;14.85;;;13.60;99.90;;;;;;5074426;28;20391;-79
2022/06/28 01:23:45;;;;;;;26.40;14.55;;;13.50;99.90;;;;;;5074282;28;20044;-79
2022/06/28 01:26:12;;;;;;;25.33;14.07;;;13.50;99.90;;;;;;5074388;28;20037;-80
2022/06/28 01:28:39;;;;;;;30.55;14.60;;;13.50;99.90;;;;;;5074109;28;20493;-79
2022/06/28 01:31:05;;;;;;;28.67;14.85;;;13.60;99.90;;;;;;5074016;28;20472;-79
2022/06/28 01:33:32;;;;;;;29.35;13.68;;;13.50;99.90;;;;;;5074168;28;20040;-79
2022/06/28 01:35:59;;;;;;;26.83;13.48;;;13.60;99.90;;;;;;5073538;28;20037;-80
2022/06/28 01:38:24;;;;;;;27.58;15.30;;;13.50;99.90;;;;;;5073360;28;20056;-79
2022/06/28 01:40:50;;;;;;;24.40;15.02;;;13.50;99.90;;;;;;5074111;28;20399;-80
2022/06/28 01:43:17;;;;;;;30.67;15.18;;;13.50;99.90;;;;;;5074013;28;20051;-79
2022/06/28 01:45:44;;;;;;;26.33;15.65;;;13.50;99.90;;;;;;5073938;28;20505;-79
2022/06/28 01:48:10;;;;;;;28.55;15.45;;;13.50;99.90;;;;;;5073806;28;20087;-80
2022/06/28 01:50:37;;;;;;;30.20;13.77;;;13.50;99.90;;;;;;5072599;28;20075;-80
2022/06/28 01:53:03;;;;;;;28.80;14.80;;;13.60;99.90;;;;;;5073714;28;20450;-79
2022/06/28 01:55:29;;;;;;;27.10;14.40;;;13.50;99.90;;;;;;5073687;28;20559;-79
2022/06/28 01:57:54;;;;;;;31.00;14.05;;;13.50;99.90;;;;;;5073871;28;20040;-80
2022/06/28 02:00:20;;;;;;;27.50;13.65;;;13.60;99.90;;;;;;5073762;28;20127;-80
2022/06/28 02:02:46;;;;;;;29.92;14.23;;;13.60;99.90;;;;;;5073789;28;20103;-79
2022/06/28 02:05:11;;;;;;;29.10;13.40;;;13.60;99.90;;;;;;5073735;28;20049;-80
2022/06/28 02:07:37;;;;;;;26.48;13.77;;;13.60;99.90;;;;;;5073780;28;20094;-80
2022/06/28 02:10:03;;;;;;;37.17;14.45;;;13.60;99.90;;;;;;5072108;28;20059;-80
2022/06/28 02:12:28;;;;;;;26.98;13.48;;;13.60;99.90;;;;;;5072642;28;20051;-79
2022/06/28 02:14:56;;;;;;;29.05;14.15;;;13.60;99.90;;;;;;5073685;28;20048;-80
2022/06/28 02:17:22;;;;;;;30.45;13.55;;;13.60;99.90;;;;;;5073519;28;20059;-80
2022/06/28 02:19:47;;;;;;;29.35;13.98;;;13.60;99.90;;;;;;5073588;28;20546;-80
2022/06/28 02:22:13;;;;;;;33.80;14.65;;;13.60;99.90;;;;;;5073455;28;20049;-80
2022/06/28 02:24:39;;;;;;;25.35;13.45;;;13.60;99.90;;;;;;5072242;28;20036;-80
2022/06/28 02:27:05;;;;;;;30.83;15.02;;;13.60;99.90;;;;;;5073589;28;20040;-80
2022/06/28 02:29:31;;;;;;;32.78;14.77;;;13.50;99.90;;;;;;5072192;28;20484;-80
2022/06/28 02:31:57;;;;;;;27.92;13.85;;;13.60;99.90;;;;;;5073526;28;20037;-79
2022/06/28 02:42:35;;;;;;;33.95;15.50;;;13.50;99.90;;;;;;5072187;28;20056;-80
2022/06/28 02:45:01;;;;;;;32.85;14.60;;;13.60;99.90;;;;;;5071912;28;20037;-80
2022/06/28 02:47:26;;;;;;;29.88;15.30;;;13.60;99.90;;;;;;5075549;28;20122;-80
2022/06/28 02:49:52;;;;;;;38.08;16.77;;;13.60;99.90;;;;;;5077080;28;20075;-80
2022/06/28 02:52:18;;;;;;;32.97;15.60;;;13.60;99.90;;;;;;5075962;28;20467;-80
2022/06/28 02:54:43;;;;;;;34.35;15.27;;;13.60;99.90;;;;;;5077195;28;20134;-79
2022/06/28 02:57:09;;;;;;;38.10;15.13;;;13.60;99.90;;;;;;5077069;28;20155;-79
2022/06/28 02:59:35;;;;;;;29.95;14.30;;;13.60;99.90;;;;;;5075613;28;20132;-79
2022/06/28 03:02:00;;;;;;;28.13;14.70;;;13.60;99.90;;;;;;5076545;28;20036;-79
2022/06/28 03:04:26;;;;;;;35.45;15.18;;;13.60;99.90;;;;;;5076002;28;20086;-79
2022/06/28 03:06:52;;;;;;;29.83;14.68;;;13.60;99.90;;;;;;5074118;28;20040;-79
2022/06/28 03:09:17;;;;;;;32.42;14.30;;;13.60;99.90;;;;;;5074329;28;20040;-79
2022/06/28 03:11:43;;;;;;;37.40;14.05;;;13.60;99.90;;;;;;5076770;28;20368;-79
2022/06/28 03:14:08;;;;;;;32.65;14.88;;;13.50;99.90;;;;;;5076694;28;20044;-79
2022/06/28 03:16:34;;;;;;;25.10;13.02;;;13.50;99.90;;;;;;5075290;28;20044;-79
2022/06/28 03:19:00;;;;;;;30.35;14.30;;;13.50;99.90;;;;;;5076734;28;20115;-80
2022/06/28 03:21:25;;;;;;;26.60;12.85;;;13.50;99.90;;;;;;5075424;28;20043;-80
2022/06/28 03:23:51;;;;;;;21.63;12.98;;;13.50;99.90;;;;;;5076409;28;20148;-79
2022/06/28 03:26:16;;;;;;;24.95;12.15;;;13.50;99.90;;;;;;5076326;28;20060;-79
2022/06/28 03:28:42;;;;;;;27.95;12.32;;;13.50;99.90;;;;;;5076308;28;20040;-79
2022/06/28 03:31:08;;;;;;;31.92;11.95;;;13.50;99.90;;;;;;5076396;28;20105;-80
2022/06/28 03:33:33;;;;;;;27.75;11.60;;;13.50;99.90;;;;;;5075085;28;20097;-80
2022/06/28 03:35:59;;;;;;;22.65;12.32;;;13.50;99.90;;;;;;5076246;28;20179;-80
2022/06/28 03:38:25;;;;;;;24.73;11.88;;;13.50;99.90;;;;;;5076373;28;20048;-80
2022/06/28 03:40:50;;;;;;;25.10;10.63;;;13.50;99.90;;;;;;5076284;28;20104;-80
2022/06/28 03:43:16;;;;;;;24.15;11.15;;;13.40;99.90;;;;;;5075961;28;20119;-80
2022/06/28 03:45:42;;;;;;;22.27;11.93;;;13.50;99.90;;;;;;5076262;28;20048;-80
2022/06/28 03:48:07;;;;;;;22.48;11.57;;;13.50;99.90;;;;;;5075960;28;20040;-80
2022/06/28 03:50:33;;;;;;;28.77;12.63;;;13.50;99.90;;;;;;5076331;28;20040;-80
2022/06/28 03:52:59;;;;;;;24.77;12.10;;;13.50;99.90;;;;;;5076136;28;20040;-80
2022/06/28 03:55:24;;;;;;;29.95;13.35;;;13.50;99.90;;;;;;5074536;28;20044;-79
2022/06/28 03:57:50;;;;;;;33.13;14.27;;;13.50;99.90;;;;;;5075969;28;20039;-80
2022/06/28 04:00:16;;;;;;;26.60;13.02;;;13.50;99.90;;;;;;5075461;28;20403;-79
2022/06/28 04:02:42;;;;;;;30.20;13.35;;;13.40;99.90;;;;;;5075900;28;20036;-80
2022/06/28 04:05:08;;;;;;;34.00;12.90;;;13.50;99.90;;;;;;5075628;28;20498;-80
2022/06/28 04:07:34;;;;;;;25.35;13.68;;;13.40;99.90;;;;;;5074576;28;20052;-80
2022/06/28 04:09:59;;;;;;;24.27;13.48;;;13.50;99.90;;;;;;5075282;28;20076;-79
2022/06/28 04:12:25;;;;;;;23.88;12.98;;;13.50;99.90;;;;;;5074192;28;20045;-79
2022/06/28 04:14:51;;;;;;;27.50;14.13;;;13.50;99.90;;;;;;5075779;28;20033;-79
2022/06/28 04:17:16;;;;;;;22.52;13.45;;;13.50;99.90;;;;;;5075640;28;20438;-79
2022/06/28 04:19:42;;;;;;;34.50;13.68;;;13.60;99.90;;;;;;5075569;28;20079;-80
2022/06/28 04:22:07;;;;;;;28.45;13.13;;;13.60;99.90;;;;;;5075294;28;20044;-80
2022/06/28 04:24:33;;;;;;;23.98;12.80;;;13.60;99.90;;;;;;5075402;28;20035;-80
2022/06/28 04:26:59;;;;;;;22.77;11.88;;;13.70;99.90;;;;;;5075249;28;20452;-80
2022/06/28 04:29:24;;;;;;;25.27;12.88;;;13.70;99.90;;;;;;5075459;28;20090;-79
2022/06/28 04:31:50;;;;;;;23.30;11.73;;;13.80;99.90;;;;;;5073820;28;20384;-79
2022/06/28 04:34:16;;;;;;;22.75;12.07;;;13.90;99.90;;;;;;5075034;28;20514;-80
2022/06/28 04:36:41;;;;;;;23.92;11.82;;;14.00;99.90;;;;;;5073985;28;20468;-80
2022/06/28 04:39:07;;;;;;;21.20;11.13;;;14.00;99.90;;;;;;5074055;28;20052;-80
2022/06/28 04:41:33;;;;;;;20.60;11.13;;;14.10;99.90;;;;;;5075127;28;20036;-80
2022/06/28 04:43:58;;;;;;;20.20;10.77;;;14.20;99.90;;;;;;5074955;28;20097;-80
2022/06/28 04:46:24;;;;;;;25.58;10.95;;;14.30;99.90;;;;;;5075116;28;20044;-79
2022/06/28 04:48:49;;;;;;;17.63;9.98;;;14.40;99.90;;;;;;5074880;28;20048;-80
2022/06/28 04:51:16;;;;;;;19.42;9.65;;;14.40;99.90;;;;;;5074917;28;20131;-80
2022/06/28 04:53:44;;;;;;;16.25;8.98;;;14.60;99.90;;;;;;5074756;28;20047;-80
2022/06/28 04:56:11;;;;;;;21.58;9.98;;;14.60;99.90;;;;;;5074667;28;20500;-79
2022/06/28 04:58:37;;;;;;;18.98;9.80;;;14.70;99.90;;;;;;5074807;28;20048;-80
2022/06/28 05:01:03;;;;;;;15.65;8.40;;;14.80;99.90;;;;;;5073240;28;20040;-80
2022/06/28 05:03:29;;;;;;;14.85;8.20;;;14.90;99.90;;;;;;5073246;28;20048;-80
2022/06/28 05:05:55;;;;;;;19.75;7.90;;;15.00;99.90;;;;;;5074565;28;20048;-80
2022/06/28 05:08:21;;;;;;;16.17;7.38;;;15.10;99.90;;;;;;5074416;28;20033;-80
2022/06/28 05:10:47;;;;;;;14.65;7.55;;;15.20;99.90;;;;;;5071927;28;20556;-80
2022/06/28 05:13:12;;;;;;;13.57;7.70;;;15.30;99.90;;;;;;5073391;28;20037;-80
2022/06/28 05:15:38;;;;;;;14.18;6.97;;;15.50;99.90;;;;;;5073345;28;20052;-80
2022/06/28 05:18:04;;;;;;;15.88;6.85;;;15.60;99.90;;;;;;5074470;28;20047;-80
2022/06/28 05:20:30;;;;;;;15.20;6.80;;;15.60;99.90;;;;;;5074371;28;20385;-80
2022/06/28 05:22:55;;;;;;;17.92;7.20;;;15.80;99.90;;;;;;5072827;28;20045;-80
2022/06/28 05:25:21;;;;;;;15.75;6.75;;;15.90;99.90;;;;;;5074321;28;20476;-80
2022/06/28 05:27:47;;;;;;;13.18;6.60;;;15.90;99.90;;;;;;5072818;28;20128;-80
2022/06/28 05:30:13;;;;;;;13.70;7.25;;;16.00;99.90;;;;;;5073993;28;20080;-80
2022/06/28 05:32:38;;;;;;;14.40;7.45;;;16.10;99.90;;;;;;5072629;28;20044;-80
2022/06/28 05:35:06;;;;;;;18.08;6.35;;;16.30;99.90;;;;;;5074150;28;20037;-81
2022/06/28 05:37:32;;;;;;;20.73;6.45;;;16.40;99.90;;;;;;5073920;28;20097;-80
2022/06/28 05:39:57;;;;;;;15.27;4.75;;;16.50;99.90;;;;;;5072791;28;20041;-81
2022/06/28 05:42:23;;;;;;;11.18;5.10;;;16.60;99.90;;;;;;5074020;28;20566;-80
2022/06/28 05:44:49;;;;;;;10.35;5.20;;;16.60;99.90;;;;;;5072782;28;20404;-80
2022/06/28 05:47:14;;;;;;;9.20;5.00;;;16.70;99.90;;;;;;5072691;28;20139;-81
2022/06/28 05:49:40;;;;;;;16.23;5.38;;;16.80;99.90;;;;;;5073728;28;20036;-81
2022/06/28 05:52:06;;;;;;;11.60;5.10;;;16.90;99.90;;;;;;5073839;28;20033;-81
2022/06/28 05:54:33;;;;;;;11.32;4.63;;;16.80;99.90;;;;;;5073624;28;20052;-80
2022/06/28 05:56:59;;;;;;;13.43;5.97;;;16.90;99.90;;;;;;5073672;28;20044;-80
2022/06/28 05:59:25;;;;;;;13.23;5.10;;;16.90;99.90;;;;;;5072629;28;20053;-80
2022/06/28 06:01:50;;;;;;;12.80;5.20;;;17.10;99.90;;;;;;5072594;28;20399;-80
2022/06/28 06:04:16;;;;;;;15.20;6.30;;;17.20;99.90;;;;;;5073553;28;20052;-83
2022/06/28 06:06:42;;;;;;;15.57;5.22;;;17.30;99.90;;;;;;5073752;28;20467;-80
2022/06/28 06:09:07;;;;;;;18.60;5.53;;;17.40;99.90;;;;;;5073190;28;20192;-80
2022/06/28 06:11:33;;;;;;;14.13;4.90;;;17.50;99.90;;;;;;5073605;28;20483;-81
2022/06/28 06:13:59;;;;;;;11.02;4.95;;;17.50;99.90;;;;;;5073438;28;20141;-80
2022/06/28 06:16:24;;;;;;;11.30;4.57;;;17.70;99.90;;;;;;5072271;28;20044;-81
2022/06/28 06:18:50;;;;;;;14.55;4.88;;;17.70;99.90;;;;;;5068919;28;20499;-80
2022/06/28 06:21:16;;;;;;;13.80;5.05;;;17.70;99.90;;;;;;5061716;28;20053;-80
2022/06/28 06:23:42;;;;;;;13.88;5.43;;;17.60;99.90;;;;;;5053345;28;20037;-80
2022/06/28 06:26:07;;;;;;;10.82;4.47;;;17.60;99.90;;;;;;5052978;28;20408;-80
2022/06/28 06:28:35;;;;;;;11.82;4.13;;;17.80;99.90;;;;;;5053395;28;20037;-80
2022/06/28 06:31:01;;;;;;;14.73;4.93;;;17.90;99.90;;;;;;5051733;28;20049;-80
2022/06/28 06:33:26;;;;;;;9.80;3.88;;;18.20;99.90;;;;;;5053097;28;20044;-80
2022/06/28 06:35:52;;;;;;;13.57;4.38;;;18.30;99.90;;;;;;5052996;28;20400;-80
2022/06/28 06:38:18;;;;;;;14.73;4.22;;;18.20;99.90;;;;;;5052862;28;20037;-81
2022/06/28 06:40:43;;;;;;;8.90;3.92;;;18.20;99.90;;;;;;5052929;28;20045;-81
2022/06/28 06:43:09;;;;;;;12.80;4.03;;;18.40;99.90;;;;;;5053183;28;20044;-80
2022/06/28 06:45:35;;;;;;;11.20;3.80;;;18.50;99.90;;;;;;5053097;28;20049;-80
2022/06/28 06:48:00;;;;;;;10.63;3.67;;;18.60;99.90;;;;;;5053234;28;20041;-80
2022/06/28 06:50:26;;;;;;;12.35;4.18;;;18.60;99.90;;;;;;5052733;28;20381;-80
2022/06/28 06:52:51;;;;;;;14.70;3.58;;;18.70;99.90;;;;;;5051819;28;20060;-79
2022/06/28 06:55:17;;;;;;;13.10;3.80;;;18.60;99.90;;;;;;5052748;28;20045;-81
2022/06/28 06:57:44;;;;;;;11.02;3.40;;;18.60;99.90;;;;;;5053144;28;20072;-80
2022/06/28 07:00:11;;;;;;;15.43;4.03;;;18.60;99.90;;;;;;5053199;28;20060;-80
2022/06/28 07:02:40;;;;;;;16.70;4.13;;;18.70;99.90;;;;;;5052137;28;20064;-80
2022/06/28 07:05:07;;;;;;;12.38;3.45;;;18.60;99.90;;;;;;5052897;28;20115;-80
2022/06/28 07:07:32;;;;;;;12.40;3.58;;;18.40;99.90;;;;;;5052771;28;20403;-80
2022/06/28 07:09:58;;;;;;;12.93;4.15;;;18.60;99.90;;;;;;5052611;28;20496;-79
2022/06/28 07:12:24;;;;;;;13.25;3.70;;;18.70;99.90;;;;;;5051868;28;20044;-80
2022/06/28 07:14:50;;;;;;;18.65;6.18;;;18.80;99.90;;;;;;5053037;28;20037;-79
2022/06/28 07:17:16;;;;;;;14.90;3.47;;;19.00;99.90;;;;;;5052976;28;20454;-79
2022/06/28 07:19:41;;;;;;;10.80;3.25;;;19.10;99.90;;;;;;5052756;28;20037;-80
2022/06/28 07:22:07;;;;;;;12.50;3.53;;;19.10;99.90;;;;;;5053014;28;20048;-79
2022/06/28 07:24:33;;;;;;;15.82;3.80;;;19.30;99.90;;;;;;5052927;28;20041;-80
2022/06/28 07:26:58;;;;;;;10.90;3.30;;;19.30;99.90;;;;;;5052634;28;20080;-80
2022/06/28 07:29:24;;;;;;;14.88;3.97;;;19.30;99.90;;;;;;5052717;28;20502;-80
2022/06/28 07:31:50;;;;;;;13.82;3.05;;;19.50;99.90;;;;;;5052759;28;20079;-80
2022/06/28 07:34:16;;;;;;;12.20;3.33;;;19.60;99.90;;;;;;5054165;28;20076;-80
2022/06/28 07:36:41;;;;;;;8.82;2.83;;;19.80;99.90;;;;;;5056453;28;20056;-80
2022/06/28 07:39:07;;;;;;;8.93;2.80;;;19.90;99.90;;;;;;5054854;28;20105;-80
2022/06/28 07:41:32;;;;;;;12.30;2.58;;;19.70;99.90;;;;;;5054883;28;20492;-80
2022/06/28 07:43:58;;;;;;;11.50;3.35;;;20.00;99.90;;;;;;5056366;28;20041;-80
2022/06/28 07:46:24;;;;;;;14.55;4.20;;;19.80;99.90;;;;;;5055032;28;20149;-80
2022/06/28 07:48:50;;;;;;;7.03;2.58;;;19.70;99.90;;;;;;5055990;28;20464;-80
2022/06/28 07:54:01;;;;;;;9.82;2.90;;;20.00;99.90;;;;;;5054880;28;20064;-81
2022/06/28 07:56:27;;;;;;;9.02;2.53;;;20.00;99.90;;;;;;5054866;28;20041;-80
2022/06/28 07:58:53;;;;;;;10.52;3.05;;;20.30;99.90;;;;;;5055697;28;20376;-80
2022/06/28 08:01:18;;;;;;;11.57;3.58;;;20.00;99.90;;;;;;5055981;28;20560;-80
2022/06/28 08:03:44;;;;;;;7.80;2.92;;;20.00;99.90;;;;;;5055943;28;20400;-80
2022/06/28 08:06:09;;;;;;;10.82;2.85;;;19.80;99.90;;;;;;5055930;28;20048;-80
2022/06/28 08:08:35;;;;;;;7.68;1.92;;;19.60;99.90;;;;;;5055671;28;20090;-80
2022/06/28 08:11:01;;;;;;;13.88;2.40;;;19.30;99.90;;;;;;5055485;28;20048;-80
2022/06/28 08:13:27;;;;;;;7.75;2.30;;;19.20;99.90;;;;;;5055619;28;20123;-80
2022/06/28 08:15:53;;;;;;;10.20;2.38;;;19.10;99.90;;;;;;5054524;28;20392;-80
2022/06/28 08:18:19;;;;;;;10.27;2.35;;;19.10;99.90;;;;;;5055630;28;20391;-80
2022/06/28 08:20:44;;;;;;;9.32;2.50;;;19.00;99.90;;;;;;5055647;28;20048;-80
2022/06/28 08:23:10;;;;;;;9.75;2.70;;;19.20;99.90;;;;;;5055586;28;20045;-80
2022/06/28 08:25:36;;;;;;;9.05;2.45;;;19.50;99.90;;;;;;5055531;28;20037;-80
2022/06/28 08:28:02;;;;;;;10.88;2.53;;;19.90;99.90;;;;;;5055529;28;20041;-80
2022/06/28 08:30:28;;;;;;;13.13;2.50;;;20.00;99.90;;;;;;5055336;28;20120;-80
2022/06/28 08:32:54;;;;;;;9.82;2.33;;;20.30;99.90;;;;;;5055111;28;20469;-80
2022/06/28 08:35:21;;;;;;;9.55;2.50;;;20.50;99.90;;;;;;5055352;28;20037;-80
2022/06/28 08:37:46;;;;;;;6.05;1.50;;;20.60;99.90;;;;;;5055326;28;20087;-80
2022/06/28 08:40:13;;;;;;;10.57;1.88;;;20.70;99.90;;;;;;5055241;28;20076;-80
2022/06/28 08:42:44;;;;;;;8.07;1.50;;;20.90;99.90;;;;;;5055127;28;20511;-80
2022/06/28 08:45:12;;;;;;;6.50;1.70;;;21.00;99.90;;;;;;5054871;28;20503;-80
2022/06/28 08:47:38;;;;;;;5.50;1.75;;;21.20;99.90;;;;;;5054822;28;20291;-80
2022/06/28 08:50:07;;;;;;;8.57;2.05;;;21.10;99.90;;;;;;5055056;28;20037;-80
2022/06/28 08:52:37;;;;;;;11.52;1.63;;;21.10;99.90;;;;;;5054759;28;20476;-80
2022/06/28 08:55:06;;;;;;;7.90;1.38;;;21.40;99.90;;;;;;5054962;28;20037;-80
2022/06/28 08:57:33;;;;;;;5.45;1.25;;;21.60;99.90;;;;;;5054649;28;20395;-81
2022/06/28 08:59:59;;;;;;;7.30;1.30;;;21.80;99.90;;;;;;5054915;28;20063;-81
2022/06/28 09:02:24;;;;;;;7.90;1.65;;;21.90;99.90;;;;;;5054850;28;20041;-81
2022/06/28 09:04:53;;;;;;;7.65;1.55;;;21.80;99.90;;;;;;5053505;28;20118;-81
2022/06/28 09:07:20;;;;;;;8.00;1.48;;;21.90;99.90;;;;;;5054758;28;20097;-80
2022/06/28 09:09:46;;;;;;;9.70;1.70;;;21.90;99.90;;;;;;5054254;28;20053;-80
2022/06/28 09:12:12;;;;;;;9.10;1.40;;;21.90;99.90;;;;;;5053087;28;20049;-81
2022/06/28 09:14:39;;;;;;;7.32;1.40;;;21.70;99.90;;;;;;5054270;28;20415;-81
2022/06/28 09:17:23;;;;;;;7.20;1.50;;;21.70;99.90;;;;;;5054602;28;20052;-81
2022/06/28 09:20:11;;;;;;;7.70;2.53;;;21.50;99.90;;;;;;5052969;28;20049;-80
2022/06/28 09:22:43;;;;;;;6.68;1.75;;;21.70;99.90;;;;;;5053130;28;20049;-81
2022/06/28 09:25:30;;;;;;;9.18;2.03;;;21.80;99.90;;;;;;5054067;28;20430;-81
2022/06/28 09:27:58;;;;;;;7.85;1.65;;;21.90;99.90;;;;;;5052939;28;20100;-81
2022/06/28 09:30:26;;;;;;;5.32;2.03;;;22.10;99.90;;;;;;5054191;28;20086;-81
2022/06/28 09:32:52;;;;;;;7.75;2.33;;;22.30;99.90;;;;;;5054011;28;20572;-81
2022/06/28 09:35:18;;;;;;;8.15;1.70;;;22.10;99.90;;;;;;5054042;28;20391;-81
2022/06/28 09:37:48;;;;;;;5.03;1.40;;;22.20;99.90;;;;;;5054181;28;20475;-81
2022/06/28 09:40:22;;;;;;;5.72;1.48;;;22.20;99.90;;;;;;5053952;28;20041;-80
2022/06/28 09:43:08;;;;;;;9.48;1.83;;;22.50;99.90;;;;;;5052635;28;20396;-81
2022/06/28 09:45:35;;;;;;;7.15;1.30;;;22.50;99.90;;;;;;5053779;28;20487;-81
2022/06/28 09:48:02;;;;;;;8.00;1.60;;;22.50;99.90;;;;;;5053673;28;20480;-81
2022/06/28 09:50:30;;;;;;;9.65;1.85;;;22.50;99.90;;;;;;5053728;28;20040;-81
2022/06/28 09:52:56;;;;;;;10.65;1.55;;;22.40;99.90;;;;;;5053854;28;20081;-81
2022/06/28 09:55:26;;;;;;;7.28;1.63;;;22.70;99.90;;;;;;5052623;28;20092;-81
2022/06/28 09:57:52;;;;;;;8.73;1.80;;;22.90;99.90;;;;;;5053279;28;20488;-81
2022/06/28 10:00:24;;;;;;;5.13;1.88;;;23.00;99.90;;;;;;5052237;28;20049;-81
2022/06/28 10:02:50;;;;;;;12.90;2.27;;;22.80;99.90;;;;;;5053827;28;20063;-81
2022/06/28 10:05:17;;;;;;;9.13;1.67;;;23.10;99.90;;;;;;5052488;28;20053;-81
2022/06/28 10:07:44;;;;;;;11.48;2.08;;;23.40;99.90;;;;;;5053768;28;20037;-81
2022/06/28 10:10:10;;;;;;;8.75;1.73;;;23.40;99.90;;;;;;5053719;28;20136;-81
2022/06/28 10:15:24;;;;;;;6.22;2.10;;;23.50;99.90;;;;;;5053379;28;20563;-81
2022/06/28 10:17:55;;;;;;;9.50;1.45;;;23.60;99.90;;;;;;5053316;28;20480;-80
2022/06/28 10:20:33;;;;;;;11.18;1.92;;;23.50;99.90;;;;;;5053534;28;20053;-81
2022/06/28 10:23:27;;;;;;;6.90;1.35;;;23.60;99.90;;;;;;5053564;28;20123;-81
2022/06/28 10:26:14;;;;;;;6.18;1.75;;;24.00;99.90;;;;;;5053355;28;20040;-81
2022/06/28 10:28:45;;;;;;;8.65;1.50;;;23.70;99.90;;;;;;5052376;28;20045;-81
2022/06/28 10:31:23;;;;;;;8.40;1.80;;;23.80;99.90;;;;;;5052021;28;20056;-81
2022/06/28 10:33:54;;;;;;;10.50;1.75;;;23.50;99.90;;;;;;5053465;28;20049;-81
2022/06/28 10:36:22;;;;;;;8.45;1.33;;;23.30;99.90;;;;;;5053464;28;20124;-81
2022/06/28 10:39:09;;;;;;;6.30;1.48;;;23.50;99.90;;;;;;5053415;28;20048;-81
2022/06/28 10:41:42;;;;;;;6.30;1.42;;;23.90;99.90;;;;;;5053289;28;20121;-81
2022/06/28 10:44:20;;;;;;;7.70;1.83;;;24.00;99.90;;;;;;5053095;28;20052;-81
2022/06/28 10:46:50;;;;;;;8.45;1.83;;;24.20;99.90;;;;;;5053258;28;20128;-81
2022/06/28 10:49:16;;;;;;;10.25;1.30;;;24.30;99.90;;;;;;5053285;28;20142;-81
2022/06/28 10:52:10;;;;;;;6.15;1.33;;;24.30;99.20;;;;;;5053265;28;20068;-81
2022/06/28 10:54:37;;;;;;;5.47;1.33;;;24.50;92.30;;;;;;5052111;28;20068;-81
2022/06/28 10:57:30;;;;;;;6.03;1.02;;;24.20;84.20;;;;;;5052030;28;20125;-81
2022/06/28 11:00:00;;;;;;;8.45;1.88;;;24.30;96.70;;;;;;5051941;28;20057;-81
2022/06/28 11:02:44;;;;;;;6.07;1.38;;;24.30;93.70;;;;;;5051711;28;20056;-81
2022/06/28 11:05:10;;;;;;;8.05;1.60;;;24.30;91.40;;;;;;5053198;28;20045;-81
2022/06/28 11:07:39;;;;;;;10.07;1.85;;;24.40;99.50;;;;;;5053085;28;20048;-81
2022/06/28 11:10:16;;;;;;;8.27;1.55;;;24.50;98.20;;;;;;5055551;28;20059;-81
2022/06/28 11:12:43;;;;;;;9.15;1.58;;;24.60;99.90;;;;;;5056942;28;20183;-81
2022/06/28 11:15:37;;;;;;;7.20;1.38;;;24.70;99.90;;;;;;5055724;28;20130;-81
2022/06/28 11:18:14;;;;;;;9.73;1.88;;;25.00;99.90;;;;;;5056905;28;20057;-80
2022/06/28 11:20:39;;;;;;;8.00;1.63;;;24.90;98.00;;;;;;5056341;28;20480;-81
2022/06/28 11:23:05;;;;;;;8.38;1.15;;;24.70;99.30;;;;;;5055174;28;20064;-81
2022/06/28 11:28:16;;;;;;;6.13;1.20;;;24.90;98.60;;;;;;5056754;28;20045;-81
2022/06/28 11:30:42;;;;;;;6.45;1.63;;;24.90;97.10;;;;;;5056405;28;20163;-81
2022/06/28 11:33:08;;;;;;;5.43;1.33;;;24.80;99.40;;;;;;5056237;28;20071;-81
2022/06/28 11:35:34;;;;;;;12.68;1.80;;;24.80;95.20;;;;;;5056544;28;20041;-81
2022/06/28 11:38:05;;;;;;;8.98;1.55;;;24.90;95.70;;;;;;5056295;28;20044;-81
2022/06/28 11:40:51;;;;;;;10.05;1.90;;;24.70;97.20;;;;;;5056313;28;20044;-81
2022/06/28 11:43:19;;;;;;;6.05;1.25;;;24.20;97.20;;;;;;5056398;28;20118;-81
2022/06/28 11:45:49;;;;;;;6.57;1.27;;;24.60;99.90;;;;;;5056261;28;20095;-81
2022/06/28 11:48:21;;;;;;;11.77;1.77;;;24.70;99.90;;;;;;5056273;28;20037;-81
2022/06/28 11:50:51;;;;;;;5.82;1.05;;;24.90;99.90;;;;;;5055909;28;20528;-81
2022/06/28 11:53:17;;;;;;;5.25;1.20;;;25.10;99.90;;;;;;5055987;28;20048;-81
2022/06/28 11:55:52;;;;;;;6.65;1.23;;;25.40;99.90;;;;;;5055864;28;20037;-81
2022/06/28 11:58:23;;;;;;;6.80;1.33;;;25.50;99.90;;;;;;5056126;28;20126;-81
2022/06/28 12:01:09;;;;;;;6.68;1.33;;;25.30;99.70;;;;;;5055888;28;20354;-81
2022/06/28 12:03:43;;;;;;;8.88;1.40;;;25.20;99.90;;;;;;5055758;28;20488;-81
2022/06/28 12:06:27;;;;;;;8.05;1.52;;;25.30;99.90;;;;;;5055617;28;20380;-81
2022/06/28 12:08:58;;;;;;;10.05;1.35;;;25.50;99.80;;;;;;5054386;28;20064;-81
2022/06/28 12:11:33;;;;;;;5.47;1.23;;;25.60;99.90;;;;;;5055632;28;20549;-81
2022/06/28 12:14:00;;;;;;;8.02;1.88;;;25.70;97.30;;;;;;5055795;28;20124;-81
2022/06/28 12:16:37;;;;;;;6.60;1.50;;;25.40;99.90;;;;;;5055643;28;20048;-81
2022/06/28 12:19:06;;;;;;;5.20;1.20;;;25.40;99.90;;;;;;5055447;28;20116;-81
2022/06/28 12:21:31;;;;;;;6.93;1.38;;;25.50;99.90;;;;;;5055315;28;20049;-81
2022/06/28 12:23:58;;;;;;;5.03;1.88;;;25.60;99.90;;;;;;5054096;28;20099;-81
2022/06/28 12:26:42;;;;;;;9.43;1.60;;;25.60;99.90;;;;;;5055560;28;20251;-81
2022/06/28 12:29:08;;;;;;;5.28;1.48;;;25.50;99.50;;;;;;5055255;28;20083;-81
2022/06/28 12:31:34;;;;;;;5.57;1.85;;;25.40;99.90;;;;;;5055454;28;20037;-81
2022/06/28 12:34:06;;;;;;;8.75;1.60;;;25.40;99.90;;;;;;5055391;28;20103;-81
2022/06/28 12:36:31;;;;;;;4.53;1.33;;;25.40;99.90;;;;;;5055155;28;20044;-81
2022/06/28 12:38:57;;;;;;;4.57;1.40;;;25.40;99.90;;;;;;5055291;28;20045;-81
2022/06/28 12:41:23;;;;;;;4.18;1.20;;;25.00;97.70;;;;;;5054922;28;20047;-81
2022/06/28 12:43:48;;;;;;;4.50;1.33;;;24.90;95.50;;;;;;5055205;28;20464;-81
2022/06/28 12:46:14;;;;;;;4.78;1.27;;;24.80;99.90;;;;;;5053661;28;20138;-81
2022/06/28 12:48:39;;;;;;;4.70;1.23;;;24.10;98.10;;;;;;5054876;28;20051;-81
2022/06/28 12:51:05;;;;;;;8.38;2.10;;;24.10;99.90;;;;;;5054919;28;20129;-81
2022/06/28 12:53:31;;;;;;;6.82;1.25;;;24.30;99.90;;;;;;5055066;28;20388;-80
2022/06/28 12:55:56;;;;;;;8.05;1.20;;;24.20;99.90;;;;;;5054753;28;20045;-81